Marsh Hill, Pennsylvania
Current Conditions -  °F | °C
As of 5:54 PM on Wednesday 17 Dec 2014 (Local Time) from KIPT Reporting Station
Overcast Overcast  
Wind Chill:   Ceiling: 4800
Heat Index:   Visibility: 10mi
Dew Point: -2°   Wind: 13mph
Humidity: 65%   Direction: 270°W
Pressure: 29.96"   Gusts: NA
Location:  41.4223°N, 76.9976°W
Report Text: KIPT 172254Z 27011KT 10SM OVC048 04/M02 A2996 RMK AO2 SLP149 T00391022
Loading
Personal Weather Stations






























Interactive Weather Map New forecast layout! Learn more

10-Day Weather Forecast

Advertisements
Track Severe Weather on mobile